createdAt,value
2017-04-16T00:00:14.305Z,0
2017-04-16T00:01:15.556Z,0
2017-04-16T00:02:16.802Z,0
2017-04-16T00:03:18.036Z,0
2017-04-16T00:04:19.289Z,0
2017-04-16T00:05:20.535Z,0
2017-04-16T00:06:21.805Z,0
2017-04-16T00:07:23.025Z,0
2017-04-16T00:08:24.354Z,0
2017-04-16T00:09:25.594Z,0
2017-04-16T00:10:26.839Z,0
2017-04-16T00:11:28.151Z,0
2017-04-16T00:12:29.431Z,0
2017-04-16T00:13:30.735Z,0
2017-04-16T00:14:31.976Z,0
2017-04-16T00:15:33.262Z,0
2017-04-16T00:16:34.601Z,0
2017-04-16T00:17:35.860Z,0
2017-04-16T00:18:37.112Z,0
2017-04-16T00:19:38.338Z,0
2017-04-16T00:20:39.736Z,0
2017-04-16T00:21:40.981Z,0
2017-04-16T00:22:42.221Z,0
2017-04-16T00:23:43.545Z,0
2017-04-16T00:24:44.877Z,0
2017-04-16T00:25:46.125Z,0
2017-04-16T00:26:47.439Z,0
2017-04-16T00:27:48.678Z,0
2017-04-16T00:28:50.014Z,0
2017-04-16T00:29:51.269Z,0
2017-04-16T00:30:52.490Z,0
2017-04-16T00:31:53.756Z,0
2017-04-16T00:32:54.988Z,0
2017-04-16T00:33:56.197Z,0
2017-04-16T00:34:57.427Z,0
2017-04-16T00:35:58.657Z,0
2017-04-16T00:36:59.898Z,0
2017-04-16T00:38:01.153Z,0
2017-04-16T00:39:02.417Z,0
2017-04-16T00:40:03.643Z,0
2017-04-16T00:41:04.908Z,0
2017-04-16T00:42:06.160Z,0
2017-04-16T00:43:07.393Z,0
2017-04-16T00:44:08.652Z,0
2017-04-16T00:45:09.895Z,0
2017-04-16T00:46:11.118Z,0
2017-04-16T00:47:12.354Z,0
2017-04-16T00:48:13.596Z,0
2017-04-16T00:49:14.826Z,0
2017-04-16T00:50:16.204Z,0
2017-04-16T00:51:17.465Z,0
2017-04-16T00:52:18.759Z,0
2017-04-16T00:53:20.000Z,0
2017-04-16T00:54:21.262Z,0
2017-04-16T00:55:22.491Z,0
2017-04-16T00:56:23.858Z,0
2017-04-16T00:57:25.089Z,0
2017-04-16T00:58:26.358Z,0
2017-04-16T00:59:27.598Z,0
2017-04-16T01:00:28.880Z,0
2017-04-16T01:01:30.275Z,0
2017-04-16T01:02:31.524Z,0
2017-04-16T01:03:32.792Z,0
2017-04-16T01:04:34.054Z,0
2017-04-16T01:05:35.269Z,0
2017-04-16T01:06:36.520Z,0
2017-04-16T01:07:37.750Z,0
2017-04-16T01:08:39.122Z,0
2017-04-16T01:09:40.255Z,0
2017-04-16T01:10:41.504Z,0
2017-04-16T01:11:42.849Z,0
2017-04-16T01:12:44.112Z,0
2017-04-16T01:13:45.336Z,0
2017-04-16T01:14:46.572Z,0
2017-04-16T01:15:47.879Z,0
2017-04-16T01:16:49.287Z,0
2017-04-16T01:17:50.461Z,0
2017-04-16T01:18:51.730Z,0
2017-04-16T01:19:52.971Z,0
2017-04-16T01:20:54.204Z,0
2017-04-16T01:21:55.455Z,0
2017-04-16T01:22:56.802Z,0
2017-04-16T01:23:58.037Z,0
2017-04-16T01:24:59.299Z,0
2017-04-16T01:26:00.527Z,0
2017-04-16T01:27:01.766Z,0
2017-04-16T01:28:03.094Z,0
2017-04-16T01:29:04.330Z,0
2017-04-16T01:30:05.558Z,0
2017-04-16T01:31:06.795Z,0
2017-04-16T01:32:08.041Z,0
2017-04-16T01:33:09.272Z,0
2017-04-16T01:34:10.510Z,0
2017-04-16T01:35:11.779Z,0
2017-04-16T01:36:13.028Z,0
2017-04-16T01:37:14.251Z,0
2017-04-16T01:38:15.512Z,0
2017-04-16T01:39:16.743Z,0
2017-04-16T01:40:17.982Z,0
2017-04-16T01:41:19.214Z,0
2017-04-16T01:42:20.452Z,0
2017-04-16T01:43:21.697Z,0
2017-04-16T01:44:22.926Z,0
2017-04-16T01:45:24.155Z,0
2017-04-16T01:46:25.388Z,0
2017-04-16T01:47:26.626Z,0
2017-04-16T01:48:27.954Z,0
2017-04-16T01:49:29.193Z,0
2017-04-16T01:50:30.429Z,0
2017-04-16T01:51:31.673Z,0
2017-04-16T01:52:32.901Z,0
2017-04-16T01:53:34.112Z,0
2017-04-16T01:54:35.412Z,0
2017-04-16T01:55:36.781Z,0
2017-04-16T01:56:38.008Z,0
2017-04-16T01:57:39.272Z,0
2017-04-16T01:58:40.515Z,0
2017-04-16T01:59:41.735Z,0
2017-04-16T02:00:42.977Z,0
2017-04-16T02:01:44.319Z,0
2017-04-16T02:02:45.982Z,0
2017-04-16T02:03:47.281Z,0
2017-04-16T02:04:48.550Z,0
2017-04-16T02:05:49.762Z,0
2017-04-16T02:06:51.207Z,0
2017-04-16T02:07:52.440Z,0
2017-04-16T02:08:53.677Z,0
2017-04-16T02:09:54.917Z,0
2017-04-16T02:10:56.273Z,0
2017-04-16T02:11:57.518Z,0
2017-04-16T02:12:58.748Z,0
2017-04-16T02:13:59.988Z,0
2017-04-16T02:15:01.292Z,0
2017-04-16T02:16:02.536Z,0
2017-04-16T02:17:03.761Z,0
2017-04-16T02:18:05.000Z,0
2017-04-16T02:19:06.293Z,0
2017-04-16T02:20:07.500Z,0
2017-04-16T02:21:08.741Z,0
2017-04-16T02:22:09.973Z,0
2017-04-16T02:23:11.222Z,0
2017-04-16T02:24:12.444Z,0
2017-04-16T02:25:13.824Z,0
2017-04-16T02:26:15.075Z,0
2017-04-16T02:27:16.361Z,0
2017-04-16T02:28:17.690Z,0
2017-04-16T02:29:18.933Z,0
2017-04-16T02:30:20.171Z,0
2017-04-16T02:31:21.419Z,0
2017-04-16T02:32:22.653Z,0
2017-04-16T02:33:23.890Z,0
2017-04-16T02:34:25.185Z,0
2017-04-16T02:35:26.436Z,0
2017-04-16T02:36:27.657Z,0
2017-04-16T02:37:28.980Z,0
2017-04-16T02:38:30.258Z,0
2017-04-16T02:39:31.494Z,0
2017-04-16T02:40:32.727Z,0
2017-04-16T02:41:33.971Z,0
2017-04-16T02:42:35.214Z,0
2017-04-16T02:43:36.474Z,0
2017-04-16T02:44:37.727Z,0
2017-04-16T02:45:39.040Z,0
2017-04-16T02:46:40.279Z,0
2017-04-16T02:47:41.508Z,0
2017-04-16T02:48:42.739Z,0
2017-04-16T02:49:44.066Z,0
2017-04-16T02:50:45.384Z,0
2017-04-16T02:51:46.642Z,0
2017-04-16T02:52:47.921Z,0
2017-04-16T02:53:49.199Z,0
2017-04-16T02:54:50.437Z,0
2017-04-16T02:55:51.674Z,0
2017-04-16T02:56:52.924Z,0
2017-04-16T02:57:54.149Z,0
2017-04-16T02:58:55.447Z,0
2017-04-16T02:59:56.667Z,0
2017-04-16T03:00:57.905Z,0
2017-04-16T03:01:59.251Z,0
2017-04-16T03:03:00.487Z,0
2017-04-16T03:04:01.820Z,0
2017-04-16T03:05:03.154Z,0
2017-04-16T03:06:04.389Z,0
2017-04-16T03:07:05.630Z,0
2017-04-16T03:08:06.870Z,0
2017-04-16T03:09:08.101Z,0
2017-04-16T03:10:09.349Z,0
2017-04-16T03:11:10.636Z,0
2017-04-16T03:12:11.866Z,0
2017-04-16T03:13:13.246Z,0
2017-04-16T03:14:14.500Z,0
2017-04-16T03:15:15.742Z,0
2017-04-16T03:16:17.021Z,0
2017-04-16T03:17:18.267Z,0
2017-04-16T03:18:19.605Z,0
2017-04-16T03:19:20.840Z,0
2017-04-16T03:20:22.170Z,0
2017-04-16T03:21:23.534Z,0
2017-04-16T03:22:24.805Z,0
2017-04-16T03:23:26.019Z,0
2017-04-16T03:24:27.258Z,0
2017-04-16T03:25:28.493Z,0
2017-04-16T03:26:29.733Z,0
2017-04-16T03:27:30.981Z,0
2017-04-16T03:28:32.232Z,0
2017-04-16T03:29:33.464Z,0
2017-04-16T03:30:34.706Z,0
2017-04-16T03:31:35.955Z,0
2017-04-16T03:32:37.187Z,0
2017-04-16T03:33:38.538Z,0
2017-04-16T03:34:39.841Z,0
2017-04-16T03:35:41.113Z,0
2017-04-16T03:36:42.325Z,0
2017-04-16T03:37:43.585Z,0
2017-04-16T03:38:44.821Z,0
2017-04-16T03:39:46.222Z,0
2017-04-16T03:40:47.616Z,0
2017-04-16T03:41:48.949Z,0
2017-04-16T03:42:50.176Z,0
2017-04-16T03:43:51.409Z,0
2017-04-16T03:44:52.968Z,0
2017-04-16T03:45:54.092Z,0
2017-04-16T03:46:55.390Z,0
2017-04-16T03:47:56.629Z,0
2017-04-16T03:48:57.859Z,0
2017-04-16T03:49:59.085Z,0
2017-04-16T03:51:00.376Z,0
2017-04-16T03:52:01.616Z,0
2017-04-16T03:53:02.822Z,0
2017-04-16T03:54:04.057Z,4
2017-04-16T03:55:05.290Z,4
2017-04-16T03:56:06.737Z,0
2017-04-16T03:57:07.987Z,0
2017-04-16T03:58:09.209Z,4
2017-04-16T03:59:10.558Z,4
2017-04-16T04:00:11.924Z,4
2017-04-16T04:01:13.176Z,4
2017-04-16T04:02:14.425Z,4
2017-04-16T04:03:15.658Z,4
2017-04-16T04:04:16.998Z,8
2017-04-16T04:05:18.281Z,8
2017-04-16T04:06:19.493Z,12
2017-04-16T04:07:20.737Z,12
2017-04-16T04:08:21.949Z,16
2017-04-16T04:09:23.197Z,16
2017-04-16T04:10:24.648Z,20
2017-04-16T04:11:25.878Z,24
2017-04-16T04:12:27.169Z,28
2017-04-16T04:13:28.429Z,32
2017-04-16T04:14:29.645Z,36
2017-04-16T04:15:31.195Z,44
2017-04-16T04:16:32.460Z,52
2017-04-16T04:17:33.907Z,56
2017-04-16T04:18:35.121Z,68
2017-04-16T04:19:36.363Z,84
2017-04-16T04:20:37.740Z,92
2017-04-16T04:21:38.969Z,108
2017-04-16T04:22:40.209Z,124
2017-04-16T04:23:41.451Z,140
2017-04-16T04:24:42.688Z,156
2017-04-16T04:25:43.917Z,176
2017-04-16T04:26:45.171Z,196
2017-04-16T04:27:46.389Z,220
2017-04-16T04:28:47.642Z,252
2017-04-16T04:29:48.873Z,276
2017-04-16T04:30:50.149Z,308
2017-04-16T04:31:51.353Z,332
2017-04-16T04:32:52.580Z,364
2017-04-16T04:33:53.839Z,388
2017-04-16T04:34:55.089Z,416
2017-04-16T04:35:56.431Z,448
2017-04-16T04:36:57.674Z,480
2017-04-16T04:37:58.905Z,516
2017-04-16T04:39:00.164Z,552
2017-04-16T04:40:01.423Z,592
2017-04-16T04:41:02.826Z,632
2017-04-16T04:42:04.063Z,680
2017-04-16T04:43:05.325Z,732
2017-04-16T04:44:06.562Z,788
2017-04-16T04:45:07.764Z,840
2017-04-16T04:46:08.980Z,888
2017-04-16T04:47:10.226Z,940
2017-04-16T04:48:11.512Z,992
2017-04-16T04:49:12.785Z,1048
2017-04-16T04:50:14.016Z,1108
2017-04-16T04:51:15.412Z,1176
2017-04-16T04:52:16.655Z,1240
2017-04-16T04:53:18.125Z,1304
2017-04-16T04:54:19.360Z,1372
2017-04-16T04:55:20.612Z,1436
2017-04-16T04:56:21.849Z,1508
2017-04-16T04:57:23.424Z,1588
2017-04-16T04:58:24.548Z,1680
2017-04-16T04:59:25.817Z,1784
2017-04-16T05:00:27.056Z,1884
2017-04-16T05:01:28.298Z,1992
2017-04-16T05:02:29.572Z,2124
2017-04-16T05:03:30.807Z,2248
2017-04-16T05:04:32.095Z,2360
2017-04-16T05:05:33.362Z,2464
2017-04-16T05:06:34.582Z,2588
2017-04-16T05:07:35.819Z,2724
2017-04-16T05:08:37.053Z,2868
2017-04-16T05:09:38.301Z,2964
2017-04-16T05:10:39.534Z,3028
2017-04-16T05:11:40.857Z,3016
2017-04-16T05:12:42.171Z,3032
2017-04-16T05:13:43.405Z,3068
2017-04-16T05:14:44.644Z,3152
2017-04-16T05:15:45.873Z,3232
2017-04-16T05:16:47.222Z,3392
2017-04-16T05:17:48.356Z,3320
2017-04-16T05:18:49.759Z,5256
2017-04-16T05:19:51.061Z,5368
2017-04-16T05:20:52.293Z,5024
2017-04-16T05:21:53.527Z,4964
2017-04-16T05:22:54.759Z,5104
2017-04-16T05:23:56.017Z,5628
2017-04-16T05:24:57.261Z,6084
2017-04-16T05:25:58.498Z,6448
2017-04-16T05:26:59.733Z,6672
2017-04-16T05:28:00.962Z,6680
2017-04-16T05:29:02.282Z,7200
2017-04-16T05:30:03.538Z,7316
2017-04-16T05:31:04.761Z,7408
2017-04-16T05:32:06.042Z,7024
2017-04-16T05:33:07.329Z,7692
2017-04-16T05:34:08.560Z,8060
2017-04-16T05:35:09.799Z,7076
2017-04-16T05:36:11.110Z,7084
2017-04-16T05:37:12.345Z,7052
2017-04-16T05:38:13.768Z,6560
2017-04-16T05:39:15.220Z,6144
2017-04-16T05:40:16.464Z,5552
2017-04-16T05:41:17.706Z,5448
2017-04-16T05:42:19.180Z,5708
2017-04-16T05:43:20.637Z,5840
2017-04-16T05:44:21.864Z,6380
2017-04-16T05:45:23.105Z,6792
2017-04-16T05:46:24.373Z,7776
2017-04-16T05:47:25.719Z,8252
2017-04-16T05:48:27.056Z,7992
2017-04-16T05:49:28.236Z,7884
2017-04-16T05:50:29.468Z,7340
2017-04-16T05:51:30.705Z,7704
2017-04-16T05:52:32.166Z,8204
2017-04-16T05:53:33.409Z,9532
2017-04-16T05:54:34.664Z,10552
2017-04-16T05:55:35.913Z,10668
2017-04-16T05:56:37.167Z,10100
2017-04-16T05:57:38.449Z,9768
2017-04-16T05:58:39.744Z,10504
2017-04-16T05:59:41.090Z,10196
2017-04-16T06:00:42.296Z,9700
2017-04-16T06:01:43.576Z,9732
2017-04-16T06:02:44.817Z,9508
2017-04-16T06:03:46.055Z,9400
2017-04-16T06:04:47.310Z,10080
2017-04-16T06:05:48.543Z,9588
2017-04-16T06:06:49.894Z,9752
2017-04-16T06:07:51.155Z,10512
2017-04-16T06:08:52.392Z,10652
2017-04-16T06:09:53.651Z,10848
2017-04-16T06:10:54.901Z,11464
2017-04-16T06:11:56.174Z,11516
2017-04-16T06:12:57.390Z,11244
2017-04-16T06:13:58.641Z,10196
2017-04-16T06:14:59.875Z,9524
2017-04-16T06:16:01.136Z,9992
2017-04-16T06:17:02.397Z,10420
2017-04-16T06:18:03.646Z,11056
2017-04-16T06:19:04.886Z,11856
2017-04-16T06:20:06.189Z,11604
2017-04-16T06:21:07.419Z,11480
2017-04-16T06:22:08.670Z,12040
2017-04-16T06:23:09.911Z,13632
2017-04-16T06:24:11.175Z,14104
2017-04-16T06:25:12.419Z,16416
2017-04-16T06:26:13.708Z,14468
2017-04-16T06:27:14.976Z,14900
2017-04-16T06:28:16.196Z,17568
2017-04-16T06:29:17.435Z,19712
2017-04-16T06:30:18.684Z,19328
2017-04-16T06:31:19.934Z,20992
2017-04-16T06:32:21.176Z,21440
2017-04-16T06:33:22.475Z,21440
2017-04-16T06:34:23.725Z,21056
2017-04-16T06:35:24.943Z,21408
2017-04-16T06:36:26.189Z,21504
2017-04-16T06:37:27.437Z,21952
2017-04-16T06:38:28.701Z,23072
2017-04-16T06:39:30.179Z,23936
2017-04-16T06:40:31.759Z,23072
2017-04-16T06:41:32.887Z,21760
2017-04-16T06:42:34.132Z,22016
2017-04-16T06:43:35.458Z,22272
2017-04-16T06:44:36.692Z,22432
2017-04-16T06:45:37.934Z,22240
2017-04-16T06:46:39.188Z,23680
2017-04-16T06:47:40.570Z,24384
2017-04-16T06:48:41.878Z,23744
2017-04-16T06:49:43.130Z,25376
2017-04-16T06:50:44.561Z,27104
2017-04-16T06:51:45.826Z,24704
2017-04-16T06:52:47.088Z,24128
2017-04-16T06:53:48.377Z,26848
2017-04-16T06:54:49.755Z,26720
2017-04-16T06:55:51.008Z,27744
2017-04-16T06:56:52.264Z,28928
2017-04-16T06:57:53.512Z,29184
2017-04-16T06:58:54.759Z,28768
2017-04-16T06:59:56.001Z,28896
2017-04-16T07:00:57.342Z,28960
2017-04-16T07:01:58.586Z,30176
2017-04-16T07:02:59.858Z,23168
2017-04-16T07:04:01.104Z,19712
2017-04-16T07:05:02.475Z,25184
2017-04-16T07:06:03.754Z,21440
2017-04-16T07:07:05.127Z,24288
2017-04-16T07:08:06.392Z,30784
2017-04-16T07:09:07.641Z,32832
2017-04-16T07:10:08.859Z,32800
2017-04-16T07:11:10.333Z,34912
2017-04-16T07:12:11.608Z,32832
2017-04-16T07:13:12.999Z,29088
2017-04-16T07:14:14.226Z,16736
2017-04-16T07:15:15.447Z,16800
2017-04-16T07:16:16.684Z,17792
2017-04-16T07:17:17.972Z,18816
2017-04-16T07:18:19.306Z,18336
2017-04-16T07:19:20.557Z,31296
2017-04-16T07:20:21.801Z,32448
2017-04-16T07:21:23.043Z,31840
2017-04-16T07:22:24.321Z,30624
2017-04-16T07:23:25.594Z,32352
2017-04-16T07:24:26.864Z,30912
2017-04-16T07:25:28.117Z,33664
2017-04-16T07:26:29.369Z,37760
2017-04-16T07:27:30.627Z,31296
2017-04-16T07:28:31.876Z,38304
2017-04-16T07:29:33.142Z,38976
2017-04-16T07:30:34.411Z,35552
2017-04-16T07:31:35.654Z,35264
2017-04-16T07:32:36.911Z,20096
2017-04-16T07:33:38.145Z,40768
2017-04-16T07:34:39.477Z,46176
2017-04-16T07:35:40.882Z,34432
2017-04-16T07:36:42.340Z,34624
2017-04-16T07:37:43.649Z,34656
2017-04-16T07:38:44.900Z,26880
2017-04-16T07:39:46.180Z,26976
2017-04-16T07:40:47.489Z,23872
2017-04-16T07:41:48.844Z,20416
2017-04-16T07:42:50.124Z,18784
2017-04-16T07:43:51.385Z,16544
2017-04-16T07:44:52.653Z,14396
2017-04-16T07:45:53.920Z,13784
2017-04-16T07:46:55.164Z,14404
2017-04-16T07:47:56.412Z,13148
2017-04-16T07:48:57.749Z,12792
2017-04-16T07:49:58.996Z,13272
2017-04-16T07:51:00.457Z,14840
2017-04-16T07:52:01.786Z,15952
2017-04-16T07:53:03.063Z,16084
2017-04-16T07:54:04.306Z,18816
2017-04-16T07:55:05.692Z,15980
2017-04-16T07:56:06.906Z,14788
2017-04-16T07:57:08.164Z,17792
2017-04-16T07:58:09.468Z,44896
2017-04-16T07:59:10.756Z,41344
2017-04-16T08:00:12.020Z,46240
2017-04-16T08:01:13.456Z,31648
2017-04-16T08:02:14.678Z,37792
2017-04-16T08:03:15.940Z,39424
2017-04-16T08:04:17.250Z,39424
2017-04-16T08:05:18.510Z,37408
2017-04-16T08:06:19.749Z,14292
2017-04-16T08:07:21.006Z,16736
2017-04-16T08:08:22.245Z,18592
2017-04-16T08:09:23.493Z,44672
2017-04-16T08:10:24.791Z,42944
2017-04-16T08:11:26.263Z,26816
2017-04-16T08:12:27.511Z,44032
2017-04-16T08:13:28.774Z,18976
2017-04-16T08:14:30.013Z,12692
2017-04-16T08:15:31.270Z,11928
2017-04-16T08:16:32.509Z,14736
2017-04-16T08:17:33.764Z,17184
2017-04-16T08:18:35.005Z,23168
2017-04-16T08:19:36.255Z,16272
2017-04-16T08:20:37.517Z,28832
2017-04-16T08:21:38.742Z,26272
2017-04-16T08:22:40.029Z,28928
2017-04-16T08:23:41.285Z,32384
2017-04-16T08:24:42.545Z,23008
2017-04-16T08:25:43.802Z,21504
2017-04-16T08:26:45.078Z,28960
2017-04-16T08:27:46.377Z,36672
2017-04-16T08:28:47.635Z,34848
2017-04-16T08:29:49.123Z,33440
2017-04-16T08:30:50.419Z,17952
2017-04-16T08:31:51.760Z,14916
2017-04-16T08:32:53.004Z,32992
2017-04-16T08:33:54.262Z,22112
2017-04-16T08:34:55.533Z,18080
2017-04-16T08:35:56.784Z,19168
2017-04-16T08:36:58.058Z,24512
2017-04-16T08:37:59.288Z,27744
2017-04-16T08:39:00.557Z,25856
2017-04-16T08:40:01.864Z,28960
2017-04-16T08:41:03.114Z,46336
2017-04-16T08:42:04.382Z,23712
2017-04-16T08:43:05.662Z,10332
2017-04-16T08:44:06.900Z,12920
2017-04-16T08:45:08.147Z,17824
2017-04-16T08:46:09.394Z,18368
2017-04-16T08:47:10.656Z,31456
2017-04-16T08:48:12.019Z,13420
2017-04-16T08:49:13.278Z,10764
2017-04-16T08:50:14.808Z,11600
2017-04-16T08:51:16.062Z,13436
2017-04-16T08:52:17.344Z,20096
2017-04-16T08:53:18.648Z,45824
2017-04-16T08:54:19.901Z,47040
2017-04-16T08:55:21.154Z,45824
2017-04-16T08:56:22.422Z,41568
2017-04-16T08:57:23.774Z,51296
2017-04-16T08:58:25.037Z,44960
2017-04-16T08:59:26.284Z,49696
2017-04-16T09:00:27.695Z,57056
2017-04-16T09:01:28.946Z,42784
2017-04-16T09:02:30.199Z,17248
2017-04-16T09:03:31.574Z,17536
2017-04-16T09:04:32.802Z,31264
2017-04-16T09:05:34.046Z,33376
2017-04-16T09:06:35.505Z,32704
2017-04-16T09:07:37.005Z,27232
2017-04-16T09:08:38.263Z,22496
2017-04-16T09:09:39.573Z,31104
2017-04-16T09:10:40.852Z,37024
2017-04-16T09:11:42.098Z,37056
2017-04-16T09:12:43.368Z,39104
2017-04-16T09:13:44.620Z,42368
2017-04-16T09:14:45.962Z,20512
2017-04-16T09:15:47.201Z,15224
2017-04-16T09:16:48.649Z,16544
2017-04-16T09:17:49.911Z,20320
2017-04-16T09:18:51.167Z,43360
2017-04-16T09:19:52.416Z,31424
2017-04-16T09:20:53.757Z,43008
2017-04-16T09:21:55.034Z,48384
2017-04-16T09:22:56.300Z,16072
2017-04-16T09:23:57.548Z,20320
2017-04-16T09:24:58.801Z,49728
2017-04-16T09:26:00.091Z,21472
2017-04-16T09:27:01.355Z,18176
2017-04-16T09:28:02.628Z,29216
2017-04-16T09:29:03.882Z,65440
2017-04-16T09:30:05.183Z,61696
2017-04-16T09:31:06.526Z,44192
2017-04-16T09:32:07.823Z,17472
2017-04-16T09:33:09.083Z,66784
2017-04-16T09:34:10.347Z,72768
2017-04-16T09:35:11.600Z,72064
2017-04-16T09:36:12.860Z,41056
2017-04-16T09:37:14.191Z,59776
2017-04-16T09:38:15.504Z,60224
2017-04-16T09:39:16.844Z,66912
2017-04-16T09:40:18.088Z,74880
2017-04-16T09:41:19.359Z,77024
2017-04-16T09:42:20.673Z,78080
2017-04-16T09:43:21.934Z,73184
2017-04-16T09:44:23.348Z,56352
2017-04-16T09:45:24.590Z,14448
2017-04-16T09:46:25.851Z,14704
2017-04-16T09:47:27.102Z,11196
2017-04-16T09:48:28.378Z,10428
2017-04-16T09:49:29.625Z,11648
2017-04-16T09:50:30.985Z,12648
2017-04-16T09:51:32.235Z,12300
2017-04-16T09:52:33.499Z,14564
2017-04-16T09:53:34.792Z,14436
2017-04-16T09:54:36.072Z,16576
2017-04-16T09:55:37.321Z,89472
2017-04-16T09:56:38.575Z,15404
2017-04-16T09:57:39.918Z,66208
2017-04-16T09:58:41.156Z,34656
2017-04-16T09:59:42.411Z,67872
2017-04-16T10:00:43.710Z,64896
2017-04-16T10:01:45.028Z,85408
2017-04-16T10:02:46.349Z,16992
2017-04-16T10:03:47.822Z,15596
2017-04-16T10:04:49.047Z,13488
2017-04-16T10:05:50.304Z,12000
2017-04-16T10:06:51.581Z,10960
2017-04-16T10:07:52.913Z,11012
2017-04-16T10:08:54.080Z,10132
2017-04-16T10:09:55.340Z,10424
2017-04-16T10:10:56.598Z,12580
2017-04-16T10:11:57.831Z,78688
2017-04-16T10:12:59.097Z,69312
2017-04-16T10:14:00.369Z,76384
2017-04-16T10:15:01.665Z,78912
2017-04-16T10:16:02.929Z,73152
2017-04-16T10:17:04.178Z,34080
2017-04-16T10:18:05.435Z,15084
2017-04-16T10:19:06.726Z,15460
2017-04-16T10:20:08.031Z,20544
2017-04-16T10:21:09.341Z,54336
2017-04-16T10:22:10.586Z,53344
2017-04-16T10:23:11.871Z,29696
2017-04-16T10:24:13.165Z,52192
2017-04-16T10:25:14.568Z,49824
2017-04-16T10:26:15.907Z,47936
2017-04-16T10:27:17.138Z,45536
2017-04-16T10:28:18.385Z,46912
2017-04-16T10:29:19.632Z,44096
2017-04-16T10:30:20.877Z,43200
2017-04-16T10:31:22.136Z,51968
2017-04-16T10:32:23.419Z,53280
2017-04-16T10:33:24.666Z,54656
2017-04-16T10:34:25.950Z,50848
2017-04-16T10:35:27.246Z,51616
2017-04-16T10:36:28.558Z,27840
2017-04-16T10:37:29.835Z,14724
2017-04-16T10:38:31.087Z,12832
2017-04-16T10:39:32.337Z,14628
2017-04-16T10:40:33.733Z,19776
2017-04-16T10:41:34.978Z,15956
2017-04-16T10:42:36.251Z,13572
2017-04-16T10:43:37.504Z,11604
2017-04-16T10:44:38.791Z,11112
2017-04-16T10:45:40.048Z,11208
2017-04-16T10:46:41.320Z,11884
2017-04-16T10:47:42.548Z,12240
2017-04-16T10:48:43.791Z,11848
2017-04-16T10:49:45.106Z,12488
2017-04-16T10:50:46.389Z,12404
2017-04-16T10:51:47.683Z,12476
2017-04-16T10:52:48.909Z,12780
2017-04-16T10:53:50.155Z,14240
2017-04-16T10:54:51.418Z,14780
2017-04-16T10:55:52.657Z,13516
2017-04-16T10:56:53.962Z,12072
2017-04-16T10:57:55.525Z,11668
2017-04-16T10:58:56.677Z,11432
2017-04-16T10:59:57.954Z,10716
2017-04-16T11:00:59.212Z,10080
2017-04-16T11:02:00.445Z,9204
2017-04-16T11:03:01.694Z,9036
2017-04-16T11:04:02.969Z,9048
2017-04-16T11:05:04.230Z,8908
2017-04-16T11:06:05.515Z,9048
2017-04-16T11:07:06.782Z,8800
2017-04-16T11:08:08.183Z,8720
2017-04-16T11:09:09.530Z,8640
2017-04-16T11:10:10.774Z,9464
2017-04-16T11:11:12.013Z,11300
2017-04-16T11:12:13.257Z,12096
2017-04-16T11:13:14.532Z,12244
2017-04-16T11:14:16.021Z,12392
2017-04-16T11:15:17.312Z,13436
2017-04-16T11:16:18.546Z,13764
2017-04-16T11:17:19.788Z,13768
2017-04-16T11:18:21.125Z,13412
2017-04-16T11:19:22.365Z,12816
2017-04-16T11:20:23.621Z,13092
2017-04-16T11:21:24.866Z,13436
2017-04-16T11:22:26.102Z,13760
2017-04-16T11:23:27.353Z,13240
2017-04-16T11:24:28.607Z,12292
2017-04-16T11:25:29.850Z,11340
2017-04-16T11:26:31.089Z,10992
2017-04-16T11:27:32.374Z,11204
2017-04-16T11:28:33.836Z,11908
2017-04-16T11:29:35.048Z,13360
2017-04-16T11:30:36.418Z,14252
2017-04-16T11:31:37.683Z,14036
2017-04-16T11:32:38.966Z,13876
2017-04-16T11:33:40.209Z,13332
2017-04-16T11:34:41.478Z,12804
2017-04-16T11:35:42.691Z,12172
2017-04-16T11:36:43.939Z,12032
2017-04-16T11:37:45.257Z,12672
2017-04-16T11:38:46.499Z,13676
2017-04-16T11:39:47.759Z,14360
2017-04-16T11:40:49.058Z,14952
2017-04-16T11:41:50.308Z,16052
2017-04-16T11:42:51.552Z,16960
2017-04-16T11:43:52.786Z,17184
2017-04-16T11:44:54.070Z,16960
2017-04-16T11:45:55.327Z,17376
2017-04-16T11:46:56.564Z,18208
2017-04-16T11:47:57.825Z,17760
2017-04-16T11:48:59.058Z,16928
2017-04-16T11:50:00.377Z,17536
2017-04-16T11:51:01.633Z,17920
2017-04-16T11:52:02.877Z,17472
2017-04-16T11:53:04.118Z,17408
2017-04-16T11:54:05.359Z,17024
2017-04-16T11:55:06.704Z,15088
2017-04-16T11:56:08.000Z,12524
2017-04-16T11:57:09.245Z,11344
2017-04-16T11:58:10.498Z,10388
2017-04-16T11:59:11.907Z,9392
2017-04-16T12:00:13.141Z,8620
2017-04-16T12:01:14.504Z,7784
2017-04-16T12:02:15.972Z,7316
2017-04-16T12:03:17.201Z,6772
2017-04-16T12:04:18.484Z,6824
2017-04-16T12:05:19.709Z,6988
2017-04-16T12:06:20.968Z,6600
2017-04-16T12:07:22.226Z,6148
2017-04-16T12:08:23.485Z,6048
2017-04-16T12:09:24.751Z,6136
2017-04-16T12:10:26.006Z,6344
2017-04-16T12:11:27.282Z,6932
2017-04-16T12:12:28.533Z,8748
2017-04-16T12:13:29.876Z,10032
2017-04-16T12:14:31.204Z,10740
2017-04-16T12:15:32.436Z,11132
2017-04-16T12:16:33.686Z,11908
2017-04-16T12:17:34.933Z,12236
2017-04-16T12:18:36.176Z,12588
2017-04-16T12:19:37.417Z,12388
2017-04-16T12:20:38.661Z,11788
2017-04-16T12:21:39.933Z,11452
2017-04-16T12:22:41.183Z,10120
2017-04-16T12:23:42.423Z,9392
2017-04-16T12:24:43.670Z,9896
2017-04-16T12:25:44.939Z,11128
2017-04-16T12:26:46.170Z,12584
2017-04-16T12:27:47.416Z,13036
2017-04-16T12:28:48.667Z,13300
2017-04-16T12:29:49.906Z,13632
2017-04-16T12:30:51.162Z,13016
2017-04-16T12:31:52.544Z,11408
2017-04-16T12:32:53.794Z,9876
2017-04-16T12:33:55.038Z,8816
2017-04-16T12:34:56.278Z,8248
2017-04-16T12:35:57.571Z,7964
2017-04-16T12:36:58.800Z,7584
2017-04-16T12:38:00.039Z,7180
2017-04-16T12:39:01.336Z,7012
2017-04-16T12:40:02.577Z,7116
2017-04-16T12:41:03.827Z,7304
2017-04-16T12:42:05.085Z,7596
2017-04-16T12:43:06.322Z,7744
2017-04-16T12:44:07.587Z,8228
2017-04-16T12:45:08.814Z,8576
2017-04-16T12:46:10.154Z,8720
2017-04-16T12:47:11.422Z,9156
2017-04-16T12:48:12.667Z,8928
2017-04-16T12:49:13.914Z,8560
2017-04-16T12:50:15.176Z,8648
2017-04-16T12:51:16.478Z,9164
2017-04-16T12:52:17.758Z,8812
2017-04-16T12:53:18.985Z,9076
2017-04-16T12:54:20.274Z,9108
2017-04-16T12:55:21.541Z,9008
2017-04-16T12:56:22.794Z,9356
2017-04-16T12:57:24.110Z,9676
2017-04-16T12:58:25.324Z,10272
2017-04-16T12:59:26.574Z,11084
2017-04-16T13:00:27.810Z,11232
2017-04-16T13:01:29.073Z,11012
2017-04-16T13:02:30.330Z,9632
2017-04-16T13:03:31.659Z,8848
2017-04-16T13:04:32.906Z,8032
2017-04-16T13:05:34.150Z,7232
2017-04-16T13:06:35.415Z,6348
2017-04-16T13:07:36.630Z,5732
2017-04-16T13:08:37.893Z,5204
2017-04-16T13:09:39.131Z,4576
2017-04-16T13:10:40.377Z,4308
2017-04-16T13:11:41.681Z,4140
2017-04-16T13:12:42.952Z,3648
2017-04-16T13:13:44.203Z,2932
2017-04-16T13:14:45.478Z,2540
2017-04-16T13:15:46.719Z,2460
2017-04-16T13:16:48.022Z,2656
2017-04-16T13:17:49.293Z,3280
2017-04-16T13:18:50.520Z,3756
2017-04-16T13:19:51.770Z,4068
2017-04-16T13:20:53.010Z,4676
2017-04-16T13:21:54.254Z,5612
2017-04-16T13:22:55.541Z,5768
2017-04-16T13:23:56.771Z,4904
2017-04-16T13:24:58.059Z,4044
2017-04-16T13:25:59.305Z,3852
2017-04-16T13:27:00.547Z,3712
2017-04-16T13:28:01.786Z,3484
2017-04-16T13:29:03.026Z,4500
2017-04-16T13:30:04.332Z,5624
2017-04-16T13:31:05.561Z,4720
2017-04-16T13:32:06.805Z,4224
2017-04-16T13:33:08.113Z,4632
2017-04-16T13:34:09.354Z,4372
2017-04-16T13:35:10.593Z,3588
2017-04-16T13:36:11.881Z,3024
2017-04-16T13:37:13.249Z,3072
2017-04-16T13:38:14.538Z,3836
2017-04-16T13:39:15.716Z,4892
2017-04-16T13:40:16.954Z,5236
2017-04-16T13:41:18.190Z,4456
2017-04-16T13:42:19.442Z,3480
2017-04-16T13:43:20.687Z,2612
2017-04-16T13:44:21.960Z,1880
2017-04-16T13:45:23.301Z,1500
2017-04-16T13:46:24.552Z,1328
2017-04-16T13:47:25.802Z,1248
2017-04-16T13:48:27.080Z,1204
2017-04-16T13:49:28.409Z,1216